sensor_id;sensor_type;location;lat;lon;timestamp;P1;durP1;ratioP1;P2;durP2;ratioP2
61473;SDS011;53694;49.784;30.150;2023-08-20T00:00:36;55.81;;;30.24;;
61473;SDS011;53694;49.784;30.150;2023-08-20T00:01:39;34.61;;;19.25;;
61473;SDS011;53694;49.784;30.150;2023-08-20T00:02:41;28.10;;;16.89;;
61473;SDS011;53694;49.784;30.150;2023-08-20T00:03:43;30.12;;;17.94;;
61473;SDS011;53694;49.784;30.150;2023-08-20T00:04:46;33.29;;;18.37;;
61473;SDS011;53694;49.784;30.150;2023-08-20T00:05:49;28.44;;;18.41;;
61473;SDS011;53694;49.784;30.150;2023-08-20T00:06:53;32.69;;;19.07;;
61473;SDS011;53694;49.784;30.150;2023-08-20T00:07:54;29.28;;;18.82;;
61473;SDS011;53694;49.784;30.150;2023-08-20T00:08:56;30.49;;;19.25;;
61473;SDS011;53694;49.784;30.150;2023-08-20T00:09:58;40.10;;;22.46;;
61473;SDS011;53694;49.784;30.150;2023-08-20T00:11:00;32.63;;;19.75;;
61473;SDS011;53694;49.784;30.150;2023-08-20T00:12:01;31.02;;;17.34;;
61473;SDS011;53694;49.784;30.150;2023-08-20T00:13:03;27.42;;;14.45;;
61473;SDS011;53694;49.784;30.150;2023-08-20T00:14:04;21.48;;;12.80;;
61473;SDS011;53694;49.784;30.150;2023-08-20T00:15:06;20.65;;;13.03;;
61473;SDS011;53694;49.784;30.150;2023-08-20T00:16:09;19.43;;;13.00;;
61473;SDS011;53694;49.784;30.150;2023-08-20T00:17:11;25.32;;;14.59;;
61473;SDS011;53694;49.784;30.150;2023-08-20T00:18:13;24.61;;;13.58;;
61473;SDS011;53694;49.784;30.150;2023-08-20T00:19:15;28.63;;;15.39;;
61473;SDS011;53694;49.784;30.150;2023-08-20T00:20:18;22.59;;;13.33;;
61473;SDS011;53694;49.784;30.150;2023-08-20T00:21:20;21.23;;;12.75;;
61473;SDS011;53694;49.784;30.150;2023-08-20T00:22:22;24.17;;;12.91;;
61473;SDS011;53694;49.784;30.150;2023-08-20T00:23:24;25.94;;;14.06;;
61473;SDS011;53694;49.784;30.150;2023-08-20T00:24:26;30.15;;;16.55;;
61473;SDS011;53694;49.784;30.150;2023-08-20T00:25:28;30.64;;;16.49;;
61473;SDS011;53694;49.784;30.150;2023-08-20T00:26:30;31.69;;;15.69;;
61473;SDS011;53694;49.784;30.150;2023-08-20T00:27:32;25.90;;;14.96;;
61473;SDS011;53694;49.784;30.150;2023-08-20T00:28:34;23.34;;;13.90;;
61473;SDS011;53694;49.784;30.150;2023-08-20T00:29:35;22.78;;;12.80;;
61473;SDS011;53694;49.784;30.150;2023-08-20T00:30:37;18.71;;;12.29;;
61473;SDS011;53694;49.784;30.150;2023-08-20T00:31:38;22.85;;;12.11;;
61473;SDS011;53694;49.784;30.150;2023-08-20T00:32:40;18.81;;;11.49;;
61473;SDS011;53694;49.784;30.150;2023-08-20T00:33:41;21.67;;;11.54;;
61473;SDS011;53694;49.784;30.150;2023-08-20T00:34:43;15.76;;;10.93;;
61473;SDS011;53694;49.784;30.150;2023-08-20T00:35:44;15.00;;;10.25;;
61473;SDS011;53694;49.784;30.150;2023-08-20T00:36:46;15.18;;;10.09;;
61473;SDS011;53694;49.784;30.150;2023-08-20T00:37:47;18.01;;;11.76;;
61473;SDS011;53694;49.784;30.150;2023-08-20T00:38:49;23.55;;;13.55;;
61473;SDS011;53694;49.784;30.150;2023-08-20T00:39:50;19.66;;;12.67;;
61473;SDS011;53694;49.784;30.150;2023-08-20T00:40:52;16.99;;;12.84;;
61473;SDS011;53694;49.784;30.150;2023-08-20T00:41:54;14.76;;;10.21;;
61473;SDS011;53694;49.784;30.150;2023-08-20T00:42:55;15.56;;;11.52;;
61473;SDS011;53694;49.784;30.150;2023-08-20T00:43:57;18.05;;;11.24;;
61473;SDS011;53694;49.784;30.150;2023-08-20T00:44:58;18.22;;;11.34;;
61473;SDS011;53694;49.784;30.150;2023-08-20T00:46:00;16.97;;;11.64;;
61473;SDS011;53694;49.784;30.150;2023-08-20T00:47:02;18.25;;;12.01;;
61473;SDS011;53694;49.784;30.150;2023-08-20T00:48:05;18.65;;;12.11;;
61473;SDS011;53694;49.784;30.150;2023-08-20T00:49:08;21.44;;;13.73;;
61473;SDS011;53694;49.784;30.150;2023-08-20T00:50:10;19.14;;;11.82;;
61473;SDS011;53694;49.784;30.150;2023-08-20T00:51:13;15.93;;;10.64;;
61473;SDS011;53694;49.784;30.150;2023-08-20T00:52:19;19.11;;;9.71;;
61473;SDS011;53694;49.784;30.150;2023-08-20T00:53:18;15.08;;;9.69;;
61473;SDS011;53694;49.784;30.150;2023-08-20T00:54:20;14.60;;;8.87;;
61473;SDS011;53694;49.784;30.150;2023-08-20T00:55:23;14.34;;;8.79;;
61473;SDS011;53694;49.784;30.150;2023-08-20T00:56:25;14.12;;;9.09;;
61473;SDS011;53694;49.784;30.150;2023-08-20T00:57:26;14.93;;;9.20;;
61473;SDS011;53694;49.784;30.150;2023-08-20T00:58:28;14.84;;;8.73;;
61473;SDS011;53694;49.784;30.150;2023-08-20T00:59:30;12.93;;;9.21;;
61473;SDS011;53694;49.784;30.150;2023-08-20T01:00:33;14.24;;;10.07;;
61473;SDS011;53694;49.784;30.150;2023-08-20T01:01:35;13.98;;;11.13;;
61473;SDS011;53694;49.784;30.150;2023-08-20T01:02:37;17.14;;;11.63;;
61473;SDS011;53694;49.784;30.150;2023-08-20T01:03:39;16.39;;;11.93;;
61473;SDS011;53694;49.784;30.150;2023-08-20T01:04:40;19.39;;;13.03;;
61473;SDS011;53694;49.784;30.150;2023-08-20T01:05:45;21.94;;;13.29;;
61473;SDS011;53694;49.784;30.150;2023-08-20T01:07:04;22.33;;;14.96;;
61473;SDS011;53694;49.784;30.150;2023-08-20T01:08:27;21.68;;;13.04;;
61473;SDS011;53694;49.784;30.150;2023-08-20T01:12:00;16.50;;;10.94;;
61473;SDS011;53694;49.784;30.150;2023-08-20T01:13:04;18.68;;;11.72;;
61473;SDS011;53694;49.784;30.150;2023-08-20T01:14:15;18.19;;;10.09;;
61473;SDS011;53694;49.784;30.150;2023-08-20T01:15:17;17.81;;;10.53;;
61473;SDS011;53694;49.784;30.150;2023-08-20T01:16:18;15.01;;;10.18;;
61473;SDS011;53694;49.784;30.150;2023-08-20T01:17:20;16.36;;;10.69;;
61473;SDS011;53694;49.784;30.150;2023-08-20T01:18:21;16.31;;;10.43;;
61473;SDS011;53694;49.784;30.150;2023-08-20T01:19:25;16.24;;;9.99;;
61473;SDS011;53694;49.784;30.150;2023-08-20T01:20:29;20.22;;;11.66;;
61473;SDS011;53694;49.784;30.150;2023-08-20T01:28:28;20.73;;;13.14;;
61473;SDS011;53694;49.784;30.150;2023-08-20T01:29:31;16.62;;;11.36;;
61473;SDS011;53694;49.784;30.150;2023-08-20T01:30:34;15.90;;;10.35;;
61473;SDS011;53694;49.784;30.150;2023-08-20T01:31:36;17.47;;;10.17;;
61473;SDS011;53694;49.784;30.150;2023-08-20T01:32:39;19.74;;;10.60;;
61473;SDS011;53694;49.784;30.150;2023-08-20T01:33:41;18.02;;;10.79;;
61473;SDS011;53694;49.784;30.150;2023-08-20T01:34:43;19.12;;;11.23;;
61473;SDS011;53694;49.784;30.150;2023-08-20T01:35:44;16.71;;;10.06;;
61473;SDS011;53694;49.784;30.150;2023-08-20T01:36:46;14.71;;;9.38;;
61473;SDS011;53694;49.784;30.150;2023-08-20T01:37:48;16.40;;;9.69;;
61473;SDS011;53694;49.784;30.150;2023-08-20T01:38:49;17.39;;;10.28;;
61473;SDS011;53694;49.784;30.150;2023-08-20T01:39:50;13.80;;;10.24;;
61473;SDS011;53694;49.784;30.150;2023-08-20T01:40:52;23.00;;;12.74;;
61473;SDS011;53694;49.784;30.150;2023-08-20T01:41:54;24.64;;;13.87;;
61473;SDS011;53694;49.784;30.150;2023-08-20T01:42:55;24.10;;;15.09;;
61473;SDS011;53694;49.784;30.150;2023-08-20T01:43:57;23.33;;;14.61;;
61473;SDS011;53694;49.784;30.150;2023-08-20T01:44:59;25.66;;;14.83;;
61473;SDS011;53694;49.784;30.150;2023-08-20T01:46:00;26.71;;;16.37;;
61473;SDS011;53694;49.784;30.150;2023-08-20T01:47:02;21.47;;;15.18;;
61473;SDS011;53694;49.784;30.150;2023-08-20T01:48:04;24.16;;;16.21;;
61473;SDS011;53694;49.784;30.150;2023-08-20T01:49:06;22.53;;;15.23;;
61473;SDS011;53694;49.784;30.150;2023-08-20T01:50:08;23.61;;;14.37;;
61473;SDS011;53694;49.784;30.150;2023-08-20T01:51:10;20.99;;;12.21;;
61473;SDS011;53694;49.784;30.150;2023-08-20T01:52:12;18.36;;;11.51;;
61473;SDS011;53694;49.784;30.150;2023-08-20T01:53:13;17.57;;;12.41;;
61473;SDS011;53694;49.784;30.150;2023-08-20T01:54:15;18.21;;;12.08;;
61473;SDS011;53694;49.784;30.150;2023-08-20T01:55:16;15.49;;;11.40;;
61473;SDS011;53694;49.784;30.150;2023-08-20T01:56:18;17.09;;;11.55;;
61473;SDS011;53694;49.784;30.150;2023-08-20T01:57:19;16.11;;;10.59;;
61473;SDS011;53694;49.784;30.150;2023-08-20T01:58:21;14.76;;;10.58;;
61473;SDS011;53694;49.784;30.150;2023-08-20T01:59:23;16.73;;;10.06;;
61473;SDS011;53694;49.784;30.150;2023-08-20T02:00:24;15.57;;;11.18;;
61473;SDS011;53694;49.784;30.150;2023-08-20T02:01:26;16.66;;;10.75;;
61473;SDS011;53694;49.784;30.150;2023-08-20T02:02:27;14.45;;;10.45;;
61473;SDS011;53694;49.784;30.150;2023-08-20T02:03:29;16.64;;;11.16;;
61473;SDS011;53694;49.784;30.150;2023-08-20T02:04:30;14.61;;;10.26;;
61473;SDS011;53694;49.784;30.150;2023-08-20T02:05:32;15.76;;;11.19;;
61473;SDS011;53694;49.784;30.150;2023-08-20T02:06:34;15.83;;;11.16;;
61473;SDS011;53694;49.784;30.150;2023-08-20T02:07:35;17.16;;;13.56;;
61473;SDS011;53694;49.784;30.150;2023-08-20T02:08:37;16.61;;;12.08;;
61473;SDS011;53694;49.784;30.150;2023-08-20T02:09:38;15.92;;;11.86;;
61473;SDS011;53694;49.784;30.150;2023-08-20T02:10:40;18.26;;;11.02;;
61473;SDS011;53694;49.784;30.150;2023-08-20T02:11:41;14.79;;;10.42;;
61473;SDS011;53694;49.784;30.150;2023-08-20T02:12:43;15.17;;;9.71;;
61473;SDS011;53694;49.784;30.150;2023-08-20T02:13:44;17.64;;;10.86;;
61473;SDS011;53694;49.784;30.150;2023-08-20T02:14:45;18.97;;;10.14;;
61473;SDS011;53694;49.784;30.150;2023-08-20T02:15:56;15.21;;;10.37;;
61473;SDS011;53694;49.784;30.150;2023-08-20T02:16:52;15.61;;;9.89;;
61473;SDS011;53694;49.784;30.150;2023-08-20T02:17:54;15.30;;;9.91;;
61473;SDS011;53694;49.784;30.150;2023-08-20T02:18:57;12.19;;;9.43;;
61473;SDS011;53694;49.784;30.150;2023-08-20T02:19:59;15.09;;;9.74;;
61473;SDS011;53694;49.784;30.150;2023-08-20T02:21:00;13.29;;;9.91;;
61473;SDS011;53694;49.784;30.150;2023-08-20T02:22:02;13.44;;;9.54;;
61473;SDS011;53694;49.784;30.150;2023-08-20T02:23:03;14.57;;;9.94;;
61473;SDS011;53694;49.784;30.150;2023-08-20T02:24:05;15.84;;;10.84;;
61473;SDS011;53694;49.784;30.150;2023-08-20T02:25:07;14.47;;;10.34;;
61473;SDS011;53694;49.784;30.150;2023-08-20T02:26:09;15.47;;;10.65;;
61473;SDS011;53694;49.784;30.150;2023-08-20T02:27:11;17.29;;;11.76;;
61473;SDS011;53694;49.784;30.150;2023-08-20T02:28:12;16.71;;;11.91;;
61473;SDS011;53694;49.784;30.150;2023-08-20T02:29:14;20.60;;;11.31;;
61473;SDS011;53694;49.784;30.150;2023-08-20T02:30:16;14.92;;;10.11;;
61473;SDS011;53694;49.784;30.150;2023-08-20T02:31:18;15.45;;;9.65;;
61473;SDS011;53694;49.784;30.150;2023-08-20T02:32:19;16.89;;;9.40;;
61473;SDS011;53694;49.784;30.150;2023-08-20T02:33:21;14.21;;;9.62;;
61473;SDS011;53694;49.784;30.150;2023-08-20T02:34:22;16.47;;;9.68;;
61473;SDS011;53694;49.784;30.150;2023-08-20T02:35:24;16.30;;;9.62;;
61473;SDS011;53694;49.784;30.150;2023-08-20T02:36:26;14.13;;;9.63;;
61473;SDS011;53694;49.784;30.150;2023-08-20T02:37:27;13.63;;;9.58;;
61473;SDS011;53694;49.784;30.150;2023-08-20T02:38:29;14.46;;;9.39;;
61473;SDS011;53694;49.784;30.150;2023-08-20T02:39:31;13.37;;;9.96;;
61473;SDS011;53694;49.784;30.150;2023-08-20T02:40:32;15.72;;;10.12;;
61473;SDS011;53694;49.784;30.150;2023-08-20T02:41:36;18.66;;;11.57;;
61473;SDS011;53694;49.784;30.150;2023-08-20T02:42:37;19.33;;;14.11;;
61473;SDS011;53694;49.784;30.150;2023-08-20T02:43:39;16.54;;;12.79;;
61473;SDS011;53694;49.784;30.150;2023-08-20T02:44:40;17.34;;;12.18;;
61473;SDS011;53694;49.784;30.150;2023-08-20T02:45:42;17.63;;;11.89;;
61473;SDS011;53694;49.784;30.150;2023-08-20T02:46:44;14.57;;;11.81;;
61473;SDS011;53694;49.784;30.150;2023-08-20T02:47:45;17.47;;;11.80;;
61473;SDS011;53694;49.784;30.150;2023-08-20T02:48:47;18.62;;;12.31;;
61473;SDS011;53694;49.784;30.150;2023-08-20T02:49:48;15.70;;;11.09;;
61473;SDS011;53694;49.784;30.150;2023-08-20T02:50:50;16.99;;;9.79;;
61473;SDS011;53694;49.784;30.150;2023-08-20T02:51:52;18.59;;;9.87;;
61473;SDS011;53694;49.784;30.150;2023-08-20T02:52:53;15.32;;;9.54;;
61473;SDS011;53694;49.784;30.150;2023-08-20T02:53:55;15.34;;;9.57;;
61473;SDS011;53694;49.784;30.150;2023-08-20T02:54:57;13.14;;;9.84;;
61473;SDS011;53694;49.784;30.150;2023-08-20T02:55:58;17.01;;;9.31;;
61473;SDS011;53694;49.784;30.150;2023-08-20T02:57:00;14.69;;;8.98;;
61473;SDS011;53694;49.784;30.150;2023-08-20T02:58:02;14.69;;;9.44;;
61473;SDS011;53694;49.784;30.150;2023-08-20T02:59:03;14.26;;;9.76;;
61473;SDS011;53694;49.784;30.150;2023-08-20T03:00:05;13.73;;;9.41;;
61473;SDS011;53694;49.784;30.150;2023-08-20T03:01:17;15.40;;;10.31;;
61473;SDS011;53694;49.784;30.150;2023-08-20T03:02:22;13.72;;;10.23;;
61473;SDS011;53694;49.784;30.150;2023-08-20T03:03:24;18.61;;;11.09;;
61473;SDS011;53694;49.784;30.150;2023-08-20T03:04:25;18.03;;;11.11;;
61473;SDS011;53694;49.784;30.150;2023-08-20T03:05:27;17.99;;;12.16;;
61473;SDS011;53694;49.784;30.150;2023-08-20T03:06:29;19.46;;;12.17;;
61473;SDS011;53694;49.784;30.150;2023-08-20T03:07:30;17.42;;;12.65;;
61473;SDS011;53694;49.784;30.150;2023-08-20T03:08:31;21.00;;;12.71;;
61473;SDS011;53694;49.784;30.150;2023-08-20T03:09:33;20.29;;;15.36;;
61473;SDS011;53694;49.784;30.150;2023-08-20T03:10:34;18.59;;;11.81;;
61473;SDS011;53694;49.784;30.150;2023-08-20T03:11:36;16.88;;;10.84;;
61473;SDS011;53694;49.784;30.150;2023-08-20T03:12:37;14.83;;;10.39;;
61473;SDS011;53694;49.784;30.150;2023-08-20T03:13:39;13.80;;;9.78;;
61473;SDS011;53694;49.784;30.150;2023-08-20T03:14:40;16.15;;;9.71;;
61473;SDS011;53694;49.784;30.150;2023-08-20T03:15:42;16.54;;;10.21;;
61473;SDS011;53694;49.784;30.150;2023-08-20T03:16:44;18.76;;;11.13;;
61473;SDS011;53694;49.784;30.150;2023-08-20T03:17:45;19.00;;;12.22;;
61473;SDS011;53694;49.784;30.150;2023-08-20T03:18:47;17.92;;;11.41;;
61473;SDS011;53694;49.784;30.150;2023-08-20T03:20:00;17.04;;;11.14;;
61473;SDS011;53694;49.784;30.150;2023-08-20T03:20:58;15.28;;;9.92;;
61473;SDS011;53694;49.784;30.150;2023-08-20T03:22:00;17.21;;;10.06;;
61473;SDS011;53694;49.784;30.150;2023-08-20T03:23:01;14.50;;;9.96;;
61473;SDS011;53694;49.784;30.150;2023-08-20T03:24:03;15.73;;;10.67;;
61473;SDS011;53694;49.784;30.150;2023-08-20T03:25:06;16.35;;;11.59;;
61473;SDS011;53694;49.784;30.150;2023-08-20T03:26:08;15.05;;;11.27;;
61473;SDS011;53694;49.784;30.150;2023-08-20T03:27:09;17.65;;;12.31;;
61473;SDS011;53694;49.784;30.150;2023-08-20T03:28:11;20.34;;;12.36;;
61473;SDS011;53694;49.784;30.150;2023-08-20T03:29:12;17.73;;;12.43;;
61473;SDS011;53694;49.784;30.150;2023-08-20T03:30:14;17.49;;;12.54;;
61473;SDS011;53694;49.784;30.150;2023-08-20T03:31:16;16.35;;;11.77;;
61473;SDS011;53694;49.784;30.150;2023-08-20T03:32:17;17.24;;;10.59;;
61473;SDS011;53694;49.784;30.150;2023-08-20T03:33:19;14.12;;;10.68;;
61473;SDS011;53694;49.784;30.150;2023-08-20T03:34:21;13.75;;;9.51;;
61473;SDS011;53694;49.784;30.150;2023-08-20T03:35:23;14.60;;;9.91;;
61473;SDS011;53694;49.784;30.150;2023-08-20T03:36:24;13.11;;;9.34;;
61473;SDS011;53694;49.784;30.150;2023-08-20T03:37:26;14.56;;;9.39;;
61473;SDS011;53694;49.784;30.150;2023-08-20T03:38:27;14.46;;;9.43;;
61473;SDS011;53694;49.784;30.150;2023-08-20T03:39:29;12.92;;;9.45;;
61473;SDS011;53694;49.784;30.150;2023-08-20T03:40:31;15.11;;;9.19;;
61473;SDS011;53694;49.784;30.150;2023-08-20T03:41:33;16.74;;;9.76;;
61473;SDS011;53694;49.784;30.150;2023-08-20T03:42:34;16.73;;;9.69;;
61473;SDS011;53694;49.784;30.150;2023-08-20T03:43:36;19.26;;;10.90;;
61473;SDS011;53694;49.784;30.150;2023-08-20T03:44:37;16.50;;;10.31;;
61473;SDS011;53694;49.784;30.150;2023-08-20T03:45:39;16.91;;;11.54;;
61473;SDS011;53694;49.784;30.150;2023-08-20T03:46:40;18.36;;;11.89;;
61473;SDS011;53694;49.784;30.150;2023-08-20T03:47:42;16.29;;;12.01;;
61473;SDS011;53694;49.784;30.150;2023-08-20T03:48:43;14.81;;;11.19;;
61473;SDS011;53694;49.784;30.150;2023-08-20T03:49:45;16.83;;;10.84;;
61473;SDS011;53694;49.784;30.150;2023-08-20T03:50:47;16.73;;;10.20;;
61473;SDS011;53694;49.784;30.150;2023-08-20T03:51:48;14.10;;;9.76;;
61473;SDS011;53694;49.784;30.150;2023-08-20T03:52:50;15.45;;;9.57;;
61473;SDS011;53694;49.784;30.150;2023-08-20T03:53:51;15.01;;;8.90;;
61473;SDS011;53694;49.784;30.150;2023-08-20T03:54:53;15.92;;;10.49;;
61473;SDS011;53694;49.784;30.150;2023-08-20T03:55:54;16.83;;;9.36;;
61473;SDS011;53694;49.784;30.150;2023-08-20T03:56:56;15.40;;;10.29;;
61473;SDS011;53694;49.784;30.150;2023-08-20T03:57:57;15.70;;;10.41;;
61473;SDS011;53694;49.784;30.150;2023-08-20T03:58:59;16.27;;;11.14;;
61473;SDS011;53694;49.784;30.150;2023-08-20T04:00:01;17.06;;;12.08;;
61473;SDS011;53694;49.784;30.150;2023-08-20T04:01:02;17.26;;;10.56;;
61473;SDS011;53694;49.784;30.150;2023-08-20T04:02:04;17.06;;;10.69;;
61473;SDS011;53694;49.784;30.150;2023-08-20T04:03:05;16.34;;;10.44;;
61473;SDS011;53694;49.784;30.150;2023-08-20T04:04:07;16.76;;;10.69;;
61473;SDS011;53694;49.784;30.150;2023-08-20T04:05:08;18.31;;;11.44;;
61473;SDS011;53694;49.784;30.150;2023-08-20T04:06:11;18.86;;;12.12;;
61473;SDS011;53694;49.784;30.150;2023-08-20T04:07:12;17.64;;;12.59;;
61473;SDS011;53694;49.784;30.150;2023-08-20T04:08:14;17.09;;;12.34;;
61473;SDS011;53694;49.784;30.150;2023-08-20T04:09:15;17.58;;;13.16;;
61473;SDS011;53694;49.784;30.150;2023-08-20T04:10:17;16.73;;;11.19;;
61473;SDS011;53694;49.784;30.150;2023-08-20T04:11:19;17.73;;;10.58;;
61473;SDS011;53694;49.784;30.150;2023-08-20T04:12:20;18.44;;;10.71;;
61473;SDS011;53694;49.784;30.150;2023-08-20T04:13:21;18.71;;;10.96;;
61473;SDS011;53694;49.784;30.150;2023-08-20T04:14:23;17.42;;;10.52;;
61473;SDS011;53694;49.784;30.150;2023-08-20T04:15:24;15.70;;;10.34;;
61473;SDS011;53694;49.784;30.150;2023-08-20T04:16:26;18.26;;;11.18;;
61473;SDS011;53694;49.784;30.150;2023-08-20T04:17:29;13.33;;;10.16;;
61473;SDS011;53694;49.784;30.150;2023-08-20T04:18:30;16.21;;;10.01;;
61473;SDS011;53694;49.784;30.150;2023-08-20T04:19:32;15.83;;;10.09;;
61473;SDS011;53694;49.784;30.150;2023-08-20T04:20:33;12.69;;;9.38;;
61473;SDS011;53694;49.784;30.150;2023-08-20T04:21:35;16.72;;;10.51;;
61473;SDS011;53694;49.784;30.150;2023-08-20T04:22:37;16.94;;;10.83;;
61473;SDS011;53694;49.784;30.150;2023-08-20T04:23:38;19.47;;;11.77;;
61473;SDS011;53694;49.784;30.150;2023-08-20T04:24:40;17.81;;;11.37;;
61473;SDS011;53694;49.784;30.150;2023-08-20T04:25:41;18.78;;;12.21;;
61473;SDS011;53694;49.784;30.150;2023-08-20T04:26:43;17.48;;;12.15;;
61473;SDS011;53694;49.784;30.150;2023-08-20T04:27:45;17.37;;;12.49;;
61473;SDS011;53694;49.784;30.150;2023-08-20T04:28:46;21.36;;;13.17;;
61473;SDS011;53694;49.784;30.150;2023-08-20T04:29:48;23.58;;;13.82;;
61473;SDS011;53694;49.784;30.150;2023-08-20T04:30:51;18.24;;;12.25;;
61473;SDS011;53694;49.784;30.150;2023-08-20T04:31:55;14.99;;;11.42;;
61473;SDS011;53694;49.784;30.150;2023-08-20T04:32:57;15.37;;;10.24;;
61473;SDS011;53694;49.784;30.150;2023-08-20T04:33:58;15.43;;;10.76;;
61473;SDS011;53694;49.784;30.150;2023-08-20T04:35:00;18.66;;;11.83;;
61473;SDS011;53694;49.784;30.150;2023-08-20T04:36:02;16.73;;;10.07;;
61473;SDS011;53694;49.784;30.150;2023-08-20T04:37:03;15.11;;;10.04;;
61473;SDS011;53694;49.784;30.150;2023-08-20T04:38:05;13.79;;;9.59;;
61473;SDS011;53694;49.784;30.150;2023-08-20T04:39:06;12.91;;;10.04;;
61473;SDS011;53694;49.784;30.150;2023-08-20T04:40:08;15.95;;;9.71;;
61473;SDS011;53694;49.784;30.150;2023-08-20T04:41:10;16.41;;;10.36;;
61473;SDS011;53694;49.784;30.150;2023-08-20T04:42:12;14.17;;;10.87;;
61473;SDS011;53694;49.784;30.150;2023-08-20T04:43:13;17.67;;;11.16;;
61473;SDS011;53694;49.784;30.150;2023-08-20T04:44:15;14.65;;;11.15;;
61473;SDS011;53694;49.784;30.150;2023-08-20T04:45:17;16.67;;;12.27;;
61473;SDS011;53694;49.784;30.150;2023-08-20T04:46:18;16.95;;;11.99;;
61473;SDS011;53694;49.784;30.150;2023-08-20T04:47:20;19.42;;;12.59;;
61473;SDS011;53694;49.784;30.150;2023-08-20T04:48:21;17.56;;;13.01;;
61473;SDS011;53694;49.784;30.150;2023-08-20T04:49:23;18.81;;;12.88;;
61473;SDS011;53694;49.784;30.150;2023-08-20T04:50:25;19.89;;;13.46;;
61473;SDS011;53694;49.784;30.150;2023-08-20T04:51:26;20.69;;;13.61;;
61473;SDS011;53694;49.784;30.150;2023-08-20T04:52:28;15.58;;;12.36;;
61473;SDS011;53694;49.784;30.150;2023-08-20T04:53:29;19.24;;;11.34;;
61473;SDS011;53694;49.784;30.150;2023-08-20T04:54:31;16.15;;;11.02;;
61473;SDS011;53694;49.784;30.150;2023-08-20T04:55:32;17.01;;;11.37;;
61473;SDS011;53694;49.784;30.150;2023-08-20T04:56:34;14.69;;;11.00;;
61473;SDS011;53694;49.784;30.150;2023-08-20T04:57:35;16.19;;;10.53;;
61473;SDS011;53694;49.784;30.150;2023-08-20T04:58:37;15.08;;;10.46;;
61473;SDS011;53694;49.784;30.150;2023-08-20T04:59:38;17.62;;;11.07;;
61473;SDS011;53694;49.784;30.150;2023-08-20T05:00:40;16.36;;;11.28;;
61473;SDS011;53694;49.784;30.150;2023-08-20T05:01:41;16.81;;;11.06;;
61473;SDS011;53694;49.784;30.150;2023-08-20T05:02:43;14.89;;;10.93;;
61473;SDS011;53694;49.784;30.150;2023-08-20T05:03:45;15.49;;;11.35;;
61473;SDS011;53694;49.784;30.150;2023-08-20T05:04:46;17.89;;;12.72;;
61473;SDS011;53694;49.784;30.150;2023-08-20T05:05:48;26.36;;;13.99;;
61473;SDS011;53694;49.784;30.150;2023-08-20T05:06:50;19.94;;;12.70;;
61473;SDS011;53694;49.784;30.150;2023-08-20T05:07:52;20.98;;;13.19;;
61473;SDS011;53694;49.784;30.150;2023-08-20T05:08:53;19.13;;;13.42;;
61473;SDS011;53694;49.784;30.150;2023-08-20T05:09:55;19.57;;;13.89;;
61473;SDS011;53694;49.784;30.150;2023-08-20T05:10:57;16.94;;;13.49;;
61473;SDS011;53694;49.784;30.150;2023-08-20T05:11:58;17.33;;;13.76;;
61473;SDS011;53694;49.784;30.150;2023-08-20T05:13:00;19.26;;;15.44;;
61473;SDS011;53694;49.784;30.150;2023-08-20T05:14:01;19.08;;;15.18;;
61473;SDS011;53694;49.784;30.150;2023-08-20T05:15:03;18.18;;;13.75;;
61473;SDS011;53694;49.784;30.150;2023-08-20T05:16:06;20.65;;;12.98;;
61473;SDS011;53694;49.784;30.150;2023-08-20T05:17:08;15.05;;;11.85;;
61473;SDS011;53694;49.784;30.150;2023-08-20T05:18:10;15.17;;;11.39;;
61473;SDS011;53694;49.784;30.150;2023-08-20T05:19:12;14.50;;;11.39;;
61473;SDS011;53694;49.784;30.150;2023-08-20T05:20:13;14.74;;;10.97;;
61473;SDS011;53694;49.784;30.150;2023-08-20T05:21:15;14.41;;;11.21;;
61473;SDS011;53694;49.784;30.150;2023-08-20T05:22:16;18.00;;;12.01;;
61473;SDS011;53694;49.784;30.150;2023-08-20T05:23:18;18.45;;;12.31;;
61473;SDS011;53694;49.784;30.150;2023-08-20T05:24:19;16.97;;;12.16;;
61473;SDS011;53694;49.784;30.150;2023-08-20T05:25:21;17.14;;;11.83;;
61473;SDS011;53694;49.784;30.150;2023-08-20T05:26:22;16.36;;;12.60;;
61473;SDS011;53694;49.784;30.150;2023-08-20T05:27:24;20.66;;;13.88;;
61473;SDS011;53694;49.784;30.150;2023-08-20T05:28:25;22.34;;;14.10;;
61473;SDS011;53694;49.784;30.150;2023-08-20T05:29:27;24.01;;;14.56;;
61473;SDS011;53694;49.784;30.150;2023-08-20T05:30:28;19.04;;;13.59;;
61473;SDS011;53694;49.784;30.150;2023-08-20T05:31:30;18.71;;;15.63;;
61473;SDS011;53694;49.784;30.150;2023-08-20T05:32:31;19.20;;;14.24;;
61473;SDS011;53694;49.784;30.150;2023-08-20T05:33:33;18.62;;;14.44;;
61473;SDS011;53694;49.784;30.150;2023-08-20T05:34:34;22.06;;;15.57;;
61473;SDS011;53694;49.784;30.150;2023-08-20T05:35:36;20.40;;;15.49;;
61473;SDS011;53694;49.784;30.150;2023-08-20T05:36:38;20.43;;;14.89;;
61473;SDS011;53694;49.784;30.150;2023-08-20T05:37:39;20.65;;;15.96;;
61473;SDS011;53694;49.784;30.150;2023-08-20T05:38:41;25.08;;;15.50;;
61473;SDS011;53694;49.784;30.150;2023-08-20T05:39:42;18.24;;;14.25;;
61473;SDS011;53694;49.784;30.150;2023-08-20T05:40:45;18.19;;;12.11;;
61473;SDS011;53694;49.784;30.150;2023-08-20T05:41:46;18.46;;;11.92;;
61473;SDS011;53694;49.784;30.150;2023-08-20T05:42:48;15.16;;;12.00;;
61473;SDS011;53694;49.784;30.150;2023-08-20T05:43:49;19.30;;;11.98;;
61473;SDS011;53694;49.784;30.150;2023-08-20T05:44:51;17.33;;;11.92;;
61473;SDS011;53694;49.784;30.150;2023-08-20T05:45:52;19.54;;;11.56;;
61473;SDS011;53694;49.784;30.150;2023-08-20T05:46:54;17.44;;;11.86;;
61473;SDS011;53694;49.784;30.150;2023-08-20T05:47:55;15.60;;;11.80;;
61473;SDS011;53694;49.784;30.150;2023-08-20T05:48:57;16.14;;;12.38;;
61473;SDS011;53694;49.784;30.150;2023-08-20T05:49:58;17.51;;;12.29;;
61473;SDS011;53694;49.784;30.150;2023-08-20T05:51:00;15.11;;;12.14;;
61473;SDS011;53694;49.784;30.150;2023-08-20T05:52:01;17.16;;;12.12;;
61473;SDS011;53694;49.784;30.150;2023-08-20T05:53:03;16.50;;;11.89;;
61473;SDS011;53694;49.784;30.150;2023-08-20T05:54:05;17.62;;;12.41;;
61473;SDS011;53694;49.784;30.150;2023-08-20T05:55:06;17.08;;;11.66;;
61473;SDS011;53694;49.784;30.150;2023-08-20T05:56:08;18.49;;;11.54;;
61473;SDS011;53694;49.784;30.150;2023-08-20T05:57:10;15.89;;;12.12;;
61473;SDS011;53694;49.784;30.150;2023-08-20T05:58:11;13.79;;;11.09;;
61473;SDS011;53694;49.784;30.150;2023-08-20T05:59:13;17.43;;;11.79;;
61473;SDS011;53694;49.784;30.150;2023-08-20T06:00:15;15.81;;;11.61;;
61473;SDS011;53694;49.784;30.150;2023-08-20T06:01:16;16.81;;;10.59;;
61473;SDS011;53694;49.784;30.150;2023-08-20T06:02:18;14.84;;;11.56;;
61473;SDS011;53694;49.784;30.150;2023-08-20T06:03:19;14.83;;;11.95;;
61473;SDS011;53694;49.784;30.150;2023-08-20T06:04:21;20.82;;;12.57;;
61473;SDS011;53694;49.784;30.150;2023-08-20T06:05:23;16.51;;;12.05;;
61473;SDS011;53694;49.784;30.150;2023-08-20T06:06:24;18.05;;;13.55;;
61473;SDS011;53694;49.784;30.150;2023-08-20T06:07:27;19.62;;;13.81;;